Due to severe server failure at the provider, not all demo sites are operational. Will take some days to rebuilt everything.

Demonstration site - Click on the  for more information

This is an optional block. Switch it on/off in your settings-file: $SITE['bannerTop'] = false; or $SITE['bannerBottom'] = false;

You can display ads, any other important text or photo’s using text / html or PHP code.

You can place one or more at the top and or bottom and it can all be different for content / size .



Visit our other weather sites:

Template documentation
and downloads

And another site



Nearby METAR Reports

   
EBAW - Antwerp
Updated: 12-12-2019 16:50
Mostly Cloudy  
Mostly Cloudy  
   Wind: SSE 25.9 km/h
Wind: SSE 25.9 km/h
Temperature: 5°C
Wind Chill: 1°C
Dew Point: 1°C
Humidity: 76%
Barometer: 992 hPa
Clouds: Mostly Cloudy
Visibility: More than 10 km
Cloud details: Few Clouds 2000 ft,
Mostly Cloudy 3600 ft
EBAW 121550Z 16014KT 9999 FEW020 BKN036 05/01 Q0992 TEMPO 17015G25KT
EBLG - Liège
Updated: 12-12-2019 16:50
Partly Cloudy  
Partly Cloudy  
   Wind: South 27.8 km/h
Wind: South 27.8 km/h
Temperature: 3°C
Wind Chill: -2°C
Dew Point: 0°C
Humidity: 81%
Barometer: 994 hPa
Clouds: Partly Cloudy
Visibility: More than 10 km
Cloud details: Few Clouds 1400 ft,
Partly Cloudy 1800 ft
EBLG 121550Z 17015KT 9999 FEW014 SCT018 03/00 Q0994 TEMPO 19017G27KT
EBCV - Mons/Bergen
Updated: 12-12-2019 15:55
NOT Current
  
  
   Wind: South 33.3 km/h
Wind: South 33.3 km/h
Temperature: 5°C
Wind Chill: 0°C
Dew Point: 2°C
Humidity: 81%
Barometer: 996 hPa
EBCV 121455Z AUTO 17018KT //// /// 05/02 Q0996
EHBK - Maastricht
Updated: 12-12-2019 16:55
Overcast  
Overcast  
   Wind: South 24.1 km/h
Wind: South 24.1 km/h
Temperature: 4°C
Wind Chill: -1°C
Dew Point: 0°C
Humidity: 75%
Barometer: 995 hPa
Clouds: Overcast
Visibility: More than 10 km
Cloud details: Few Clouds 1600 ft,
Overcast 2100 ft
EHBK 121555Z AUTO 18013KT 150V210 9999 FEW016CB OVC021 04/00 Q0995 NOSIG
ELLX - Luxemburg
Updated: 12-12-2019 16:50
Mostly Cloudy  
Mostly Cloudy  
   Wind: South 20.4 km/h
Wind: South 20.4 km/h
Temperature: 2°C
Wind Chill: -3°C
Dew Point: 0°C
Humidity: 87%
Barometer: 997 hPa
Clouds: Mostly Cloudy
Visibility: More than 10 km
Cloud details: Few Clouds 1500 ft,
Mostly Cloudy 2000 ft
ELLX 121550Z 17011KT 150V220 9999 FEW015 BKN020 02/00 Q0997 NOSIG
EBOS - Oostende
Updated: 12-12-2019 16:50
Mostly Cloudy  
Mostly Cloudy  
   Wind: South 37 km/h
Wind: South 37 km/h
Temperature: 5°C
Wind Chill: -1°C
Dew Point: 3°C
Humidity: 87%
Barometer: 989 hPa
Clouds: Mostly Cloudy
Visibility: More than 10 km
Cloud details: Mostly Cloudy 1200 ft
EBOS 121550Z 17020KT 9999 BKN012 05/03 Q0989 TEMPO FM1700 17022G35KT 4000 RA BKN008

Script developed by  Saratoga-weather.org Adapted for the template by  Weerstation Leuven

This is an optional block. Switch it on/off in your settings-file: $SITE['bannerTop'] = false; or $SITE['bannerBottom'] = false;

You can display ads, any other important text or photo’s using text / html or PHP code.

You can place one or more at the top and or bottom and it can all be different for content / size .